sensor_id;sensor_type;location;lat;lon;timestamp;P1;durP1;ratioP1;P2;durP2;ratioP2
78308;SDS011;67566;42.022;21.356;2023-02-20T00:01:20;35.15;;;19.92;;
78308;SDS011;67566;42.022;21.356;2023-02-20T00:03:47;28.10;;;17.73;;
78308;SDS011;67566;42.022;21.356;2023-02-20T00:06:13;62.65;;;31.35;;
78308;SDS011;67566;42.022;21.356;2023-02-20T00:08:38;46.78;;;24.15;;
78308;SDS011;67566;42.022;21.356;2023-02-20T00:11:04;41.05;;;23.15;;
78308;SDS011;67566;42.022;21.356;2023-02-20T00:13:29;40.35;;;21.17;;
78308;SDS011;67566;42.022;21.356;2023-02-20T00:15:55;51.20;;;25.45;;
78308;SDS011;67566;42.022;21.356;2023-02-20T00:18:21;44.38;;;24.50;;
78308;SDS011;67566;42.022;21.356;2023-02-20T00:20:46;44.05;;;24.13;;
78308;SDS011;67566;42.022;21.356;2023-02-20T00:23:12;39.88;;;22.40;;
78308;SDS011;67566;42.022;21.356;2023-02-20T00:25:37;31.77;;;19.15;;
78308;SDS011;67566;42.022;21.356;2023-02-20T00:28:03;26.10;;;16.42;;
78308;SDS011;67566;42.022;21.356;2023-02-20T00:30:29;23.05;;;14.68;;
78308;SDS011;67566;42.022;21.356;2023-02-20T00:32:55;23.00;;;13.88;;
78308;SDS011;67566;42.022;21.356;2023-02-20T00:35:21;21.25;;;13.68;;
78308;SDS011;67566;42.022;21.356;2023-02-20T00:37:48;21.00;;;12.50;;
78308;SDS011;67566;42.022;21.356;2023-02-20T00:40:14;20.35;;;13.70;;
78308;SDS011;67566;42.022;21.356;2023-02-20T00:42:41;23.35;;;13.10;;
78308;SDS011;67566;42.022;21.356;2023-02-20T00:45:07;19.38;;;11.90;;
78308;SDS011;67566;42.022;21.356;2023-02-20T00:47:33;21.27;;;12.27;;
78308;SDS011;67566;42.022;21.356;2023-02-20T00:49:59;24.30;;;15.27;;
78308;SDS011;67566;42.022;21.356;2023-02-20T00:52:24;32.95;;;23.48;;
78308;SDS011;67566;42.022;21.356;2023-02-20T00:54:50;40.30;;;28.73;;
78308;SDS011;67566;42.022;21.356;2023-02-20T00:57:16;37.65;;;29.77;;
78308;SDS011;67566;42.022;21.356;2023-02-20T00:59:41;27.58;;;17.42;;
78308;SDS011;67566;42.022;21.356;2023-02-20T01:02:06;26.40;;;18.05;;
78308;SDS011;67566;42.022;21.356;2023-02-20T01:04:33;28.45;;;19.90;;
78308;SDS011;67566;42.022;21.356;2023-02-20T01:06:58;32.58;;;23.13;;
78308;SDS011;67566;42.022;21.356;2023-02-20T01:09:24;33.00;;;23.10;;
78308;SDS011;67566;42.022;21.356;2023-02-20T01:11:50;24.77;;;19.00;;
78308;SDS011;67566;42.022;21.356;2023-02-20T01:14:16;26.98;;;18.23;;
78308;SDS011;67566;42.022;21.356;2023-02-20T01:16:45;26.33;;;16.55;;
78308;SDS011;67566;42.022;21.356;2023-02-20T01:21:37;24.73;;;14.90;;
78308;SDS011;67566;42.022;21.356;2023-02-20T01:24:02;28.05;;;17.40;;
78308;SDS011;67566;42.022;21.356;2023-02-20T01:26:28;29.88;;;17.60;;
78308;SDS011;67566;42.022;21.356;2023-02-20T01:28:54;23.02;;;13.45;;
78308;SDS011;67566;42.022;21.356;2023-02-20T01:31:19;18.10;;;12.43;;
78308;SDS011;67566;42.022;21.356;2023-02-20T01:33:45;17.75;;;10.45;;
78308;SDS011;67566;42.022;21.356;2023-02-20T01:36:11;16.70;;;10.20;;
78308;SDS011;67566;42.022;21.356;2023-02-20T01:38:38;15.90;;;9.52;;
78308;SDS011;67566;42.022;21.356;2023-02-20T01:41:04;13.50;;;8.27;;
78308;SDS011;67566;42.022;21.356;2023-02-20T01:43:30;13.00;;;8.40;;
78308;SDS011;67566;42.022;21.356;2023-02-20T01:49:01;14.55;;;8.88;;
78308;SDS011;67566;42.022;21.356;2023-02-20T01:51:33;13.25;;;8.07;;
78308;SDS011;67566;42.022;21.356;2023-02-20T01:54:03;13.10;;;8.60;;
78308;SDS011;67566;42.022;21.356;2023-02-20T01:56:32;12.32;;;7.63;;
78308;SDS011;67566;42.022;21.356;2023-02-20T01:58:58;12.98;;;8.02;;
78308;SDS011;67566;42.022;21.356;2023-02-20T02:01:24;12.60;;;8.15;;
78308;SDS011;67566;42.022;21.356;2023-02-20T02:03:51;18.15;;;9.80;;
78308;SDS011;67566;42.022;21.356;2023-02-20T02:06:23;14.85;;;9.57;;
78308;SDS011;67566;42.022;21.356;2023-02-20T02:08:49;13.38;;;9.15;;
78308;SDS011;67566;42.022;21.356;2023-02-20T02:11:18;16.08;;;9.27;;
78308;SDS011;67566;42.022;21.356;2023-02-20T02:13:47;14.65;;;9.73;;
78308;SDS011;67566;42.022;21.356;2023-02-20T02:16:28;19.73;;;11.20;;
78308;SDS011;67566;42.022;21.356;2023-02-20T02:19:05;12.90;;;8.52;;
78308;SDS011;67566;42.022;21.356;2023-02-20T02:25:03;17.60;;;11.18;;
78308;SDS011;67566;42.022;21.356;2023-02-20T02:38:50;21.63;;;14.02;;
78308;SDS011;67566;42.022;21.356;2023-02-20T02:47:28;20.38;;;12.63;;
78308;SDS011;67566;42.022;21.356;2023-02-20T02:50:12;21.98;;;12.40;;
78308;SDS011;67566;42.022;21.356;2023-02-20T02:52:42;20.60;;;13.50;;
78308;SDS011;67566;42.022;21.356;2023-02-20T02:55:16;16.65;;;10.80;;
78308;SDS011;67566;42.022;21.356;2023-02-20T02:57:47;20.75;;;11.70;;
78308;SDS011;67566;42.022;21.356;2023-02-20T03:00:16;25.02;;;15.75;;
78308;SDS011;67566;42.022;21.356;2023-02-20T03:05:41;22.65;;;13.65;;
78308;SDS011;67566;42.022;21.356;2023-02-20T03:10:59;17.70;;;11.50;;
78308;SDS011;67566;42.022;21.356;2023-02-20T03:13:29;19.40;;;12.23;;
78308;SDS011;67566;42.022;21.356;2023-02-20T03:16:18;17.83;;;11.23;;
78308;SDS011;67566;42.022;21.356;2023-02-20T03:18:47;18.20;;;10.90;;
78308;SDS011;67566;42.022;21.356;2023-02-20T03:21:15;17.30;;;10.82;;
78308;SDS011;67566;42.022;21.356;2023-02-20T03:23:45;19.65;;;10.93;;
78308;SDS011;67566;42.022;21.356;2023-02-20T03:26:19;18.33;;;10.77;;
78308;SDS011;67566;42.022;21.356;2023-02-20T03:31:20;18.17;;;11.65;;
78308;SDS011;67566;42.022;21.356;2023-02-20T03:36:48;22.08;;;12.73;;
78308;SDS011;67566;42.022;21.356;2023-02-20T03:39:37;20.83;;;11.65;;
78308;SDS011;67566;42.022;21.356;2023-02-20T03:42:26;16.00;;;9.80;;
78308;SDS011;67566;42.022;21.356;2023-02-20T03:45:14;19.92;;;11.63;;
78308;SDS011;67566;42.022;21.356;2023-02-20T03:47:43;17.63;;;11.00;;
78308;SDS011;67566;42.022;21.356;2023-02-20T03:50:12;15.07;;;10.20;;
78308;SDS011;67566;42.022;21.356;2023-02-20T03:52:57;16.13;;;9.02;;
78308;SDS011;67566;42.022;21.356;2023-02-20T03:55:23;14.15;;;10.07;;
78308;SDS011;67566;42.022;21.356;2023-02-20T03:57:49;15.93;;;10.45;;
78308;SDS011;67566;42.022;21.356;2023-02-20T04:00:19;14.52;;;9.75;;
78308;SDS011;67566;42.022;21.356;2023-02-20T04:02:49;17.92;;;10.52;;
78308;SDS011;67566;42.022;21.356;2023-02-20T04:05:19;15.40;;;9.35;;
78308;SDS011;67566;42.022;21.356;2023-02-20T04:08:17;16.70;;;10.38;;
78308;SDS011;67566;42.022;21.356;2023-02-20T04:10:58;16.60;;;10.80;;
78308;SDS011;67566;42.022;21.356;2023-02-20T04:13:27;16.55;;;11.07;;
78308;SDS011;67566;42.022;21.356;2023-02-20T04:15:55;17.25;;;11.18;;
78308;SDS011;67566;42.022;21.356;2023-02-20T04:18:24;17.75;;;11.05;;
78308;SDS011;67566;42.022;21.356;2023-02-20T04:20:54;15.13;;;9.77;;
78308;SDS011;67566;42.022;21.356;2023-02-20T04:23:22;15.55;;;10.45;;
78308;SDS011;67566;42.022;21.356;2023-02-20T04:25:54;13.93;;;8.52;;
78308;SDS011;67566;42.022;21.356;2023-02-20T04:28:24;13.40;;;9.43;;
78308;SDS011;67566;42.022;21.356;2023-02-20T04:30:50;17.83;;;11.25;;
78308;SDS011;67566;42.022;21.356;2023-02-20T04:33:17;18.95;;;11.10;;
78308;SDS011;67566;42.022;21.356;2023-02-20T04:35:43;16.52;;;11.10;;
78308;SDS011;67566;42.022;21.356;2023-02-20T04:38:09;16.60;;;9.95;;
78308;SDS011;67566;42.022;21.356;2023-02-20T04:40:34;17.27;;;12.00;;
78308;SDS011;67566;42.022;21.356;2023-02-20T04:43:00;36.97;;;24.23;;
78308;SDS011;67566;42.022;21.356;2023-02-20T04:45:26;38.90;;;22.98;;
78308;SDS011;67566;42.022;21.356;2023-02-20T04:47:51;23.35;;;14.82;;
78308;SDS011;67566;42.022;21.356;2023-02-20T04:50:24;23.52;;;13.68;;
78308;SDS011;67566;42.022;21.356;2023-02-20T04:52:52;21.02;;;13.07;;
78308;SDS011;67566;42.022;21.356;2023-02-20T04:55:18;21.83;;;13.13;;
78308;SDS011;67566;42.022;21.356;2023-02-20T04:57:44;18.65;;;12.38;;
78308;SDS011;67566;42.022;21.356;2023-02-20T05:00:11;20.17;;;13.13;;
78308;SDS011;67566;42.022;21.356;2023-02-20T05:02:38;20.10;;;13.35;;
78308;SDS011;67566;42.022;21.356;2023-02-20T05:05:05;19.00;;;11.80;;
78308;SDS011;67566;42.022;21.356;2023-02-20T05:07:38;17.17;;;10.23;;
78308;SDS011;67566;42.022;21.356;2023-02-20T05:10:04;20.95;;;13.35;;
78308;SDS011;67566;42.022;21.356;2023-02-20T05:12:29;24.58;;;14.68;;
78308;SDS011;67566;42.022;21.356;2023-02-20T05:14:55;23.20;;;14.48;;
78308;SDS011;67566;42.022;21.356;2023-02-20T05:17:20;23.15;;;13.25;;
78308;SDS011;67566;42.022;21.356;2023-02-20T05:19:45;23.15;;;14.57;;
78308;SDS011;67566;42.022;21.356;2023-02-20T05:22:11;17.83;;;11.75;;
78308;SDS011;67566;42.022;21.356;2023-02-20T05:24:43;18.80;;;12.32;;
78308;SDS011;67566;42.022;21.356;2023-02-20T05:27:10;21.10;;;12.30;;
78308;SDS011;67566;42.022;21.356;2023-02-20T05:29:42;23.02;;;13.65;;
78308;SDS011;67566;42.022;21.356;2023-02-20T05:32:11;21.10;;;13.32;;
78308;SDS011;67566;42.022;21.356;2023-02-20T05:34:37;20.27;;;13.10;;
78308;SDS011;67566;42.022;21.356;2023-02-20T05:37:03;21.25;;;12.30;;
78308;SDS011;67566;42.022;21.356;2023-02-20T05:39:28;21.08;;;12.43;;
78308;SDS011;67566;42.022;21.356;2023-02-20T05:41:54;21.23;;;13.13;;
78308;SDS011;67566;42.022;21.356;2023-02-20T05:44:19;23.67;;;13.05;;
78308;SDS011;67566;42.022;21.356;2023-02-20T05:46:45;27.02;;;15.02;;
78308;SDS011;67566;42.022;21.356;2023-02-20T05:49:10;21.23;;;13.25;;
78308;SDS011;67566;42.022;21.356;2023-02-20T05:51:36;19.40;;;12.40;;
78308;SDS011;67566;42.022;21.356;2023-02-20T05:54:02;19.65;;;12.55;;
78308;SDS011;67566;42.022;21.356;2023-02-20T05:56:28;20.00;;;9.98;;
78308;SDS011;67566;42.022;21.356;2023-02-20T05:58:54;20.23;;;13.32;;
78308;SDS011;67566;42.022;21.356;2023-02-20T06:01:21;22.65;;;14.07;;
78308;SDS011;67566;42.022;21.356;2023-02-20T06:03:48;23.05;;;14.55;;
78308;SDS011;67566;42.022;21.356;2023-02-20T06:06:14;23.13;;;13.80;;
78308;SDS011;67566;42.022;21.356;2023-02-20T06:08:40;20.65;;;13.15;;
78308;SDS011;67566;42.022;21.356;2023-02-20T06:11:06;19.92;;;13.20;;
78308;SDS011;67566;42.022;21.356;2023-02-20T06:13:34;23.27;;;13.55;;
78308;SDS011;67566;42.022;21.356;2023-02-20T06:16:00;28.17;;;16.13;;
78308;SDS011;67566;42.022;21.356;2023-02-20T06:18:25;31.33;;;17.02;;
78308;SDS011;67566;42.022;21.356;2023-02-20T06:20:51;31.42;;;20.15;;
78308;SDS011;67566;42.022;21.356;2023-02-20T06:23:16;33.20;;;19.48;;
78308;SDS011;67566;42.022;21.356;2023-02-20T06:25:42;23.02;;;14.27;;
78308;SDS011;67566;42.022;21.356;2023-02-20T06:28:07;19.92;;;12.70;;
78308;SDS011;67566;42.022;21.356;2023-02-20T06:30:33;20.65;;;13.82;;
78308;SDS011;67566;42.022;21.356;2023-02-20T06:32:58;20.25;;;12.25;;
78308;SDS011;67566;42.022;21.356;2023-02-20T06:35:24;32.60;;;18.85;;
78308;SDS011;67566;42.022;21.356;2023-02-20T06:37:49;26.45;;;16.75;;
78308;SDS011;67566;42.022;21.356;2023-02-20T06:40:15;21.08;;;13.63;;
78308;SDS011;67566;42.022;21.356;2023-02-20T06:42:40;22.02;;;15.02;;
78308;SDS011;67566;42.022;21.356;2023-02-20T06:45:06;22.48;;;15.38;;
78308;SDS011;67566;42.022;21.356;2023-02-20T06:47:31;44.40;;;26.98;;
78308;SDS011;67566;42.022;21.356;2023-02-20T06:49:57;36.60;;;23.27;;
78308;SDS011;67566;42.022;21.356;2023-02-20T06:52:22;30.63;;;19.67;;
78308;SDS011;67566;42.022;21.356;2023-02-20T06:54:48;27.77;;;16.75;;
78308;SDS011;67566;42.022;21.356;2023-02-20T06:57:13;30.55;;;16.55;;
78308;SDS011;67566;42.022;21.356;2023-02-20T06:59:39;24.52;;;15.13;;
78308;SDS011;67566;42.022;21.356;2023-02-20T07:02:15;27.02;;;16.45;;
78308;SDS011;67566;42.022;21.356;2023-02-20T07:04:42;26.20;;;16.48;;
78308;SDS011;67566;42.022;21.356;2023-02-20T07:07:12;16.83;;;12.15;;
78308;SDS011;67566;42.022;21.356;2023-02-20T07:09:37;14.73;;;9.40;;
78308;SDS011;67566;42.022;21.356;2023-02-20T07:12:03;15.35;;;9.15;;
78308;SDS011;67566;42.022;21.356;2023-02-20T07:14:29;13.85;;;8.10;;
78308;SDS011;67566;42.022;21.356;2023-02-20T07:16:54;12.30;;;9.32;;
78308;SDS011;67566;42.022;21.356;2023-02-20T07:19:20;9.98;;;7.68;;
78308;SDS011;67566;42.022;21.356;2023-02-20T07:21:45;8.38;;;6.13;;
78308;SDS011;67566;42.022;21.356;2023-02-20T07:24:11;8.52;;;6.38;;
78308;SDS011;67566;42.022;21.356;2023-02-20T07:26:37;8.73;;;6.00;;
78308;SDS011;67566;42.022;21.356;2023-02-20T07:29:04;14.30;;;6.03;;
78308;SDS011;67566;42.022;21.356;2023-02-20T07:31:30;7.53;;;6.35;;
78308;SDS011;67566;42.022;21.356;2023-02-20T07:33:56;7.13;;;6.25;;
78308;SDS011;67566;42.022;21.356;2023-02-20T07:36:22;12.32;;;6.13;;
78308;SDS011;67566;42.022;21.356;2023-02-20T07:38:57;8.23;;;6.50;;
78308;SDS011;67566;42.022;21.356;2023-02-20T07:41:28;12.02;;;6.65;;
78308;SDS011;67566;42.022;21.356;2023-02-20T07:43:59;8.38;;;6.10;;
78308;SDS011;67566;42.022;21.356;2023-02-20T07:46:25;6.63;;;5.88;;
78308;SDS011;67566;42.022;21.356;2023-02-20T07:48:51;7.75;;;6.32;;
78308;SDS011;67566;42.022;21.356;2023-02-20T07:51:17;9.38;;;6.70;;
78308;SDS011;67566;42.022;21.356;2023-02-20T07:53:51;8.75;;;6.95;;
78308;SDS011;67566;42.022;21.356;2023-02-20T07:56:18;7.25;;;5.90;;
78308;SDS011;67566;42.022;21.356;2023-02-20T07:58:45;12.15;;;9.23;;
78308;SDS011;67566;42.022;21.356;2023-02-20T08:01:11;10.45;;;6.82;;
78308;SDS011;67566;42.022;21.356;2023-02-20T08:03:36;8.63;;;7.22;;
78308;SDS011;67566;42.022;21.356;2023-02-20T08:06:02;8.70;;;6.30;;
78308;SDS011;67566;42.022;21.356;2023-02-20T08:08:27;8.95;;;6.65;;
78308;SDS011;67566;42.022;21.356;2023-02-20T08:10:53;11.27;;;7.15;;
78308;SDS011;67566;42.022;21.356;2023-02-20T08:13:18;8.68;;;6.25;;
78308;SDS011;67566;42.022;21.356;2023-02-20T08:15:44;10.60;;;6.00;;
78308;SDS011;67566;42.022;21.356;2023-02-20T08:18:10;9.43;;;6.05;;
78308;SDS011;67566;42.022;21.356;2023-02-20T08:20:36;5.88;;;5.28;;
78308;SDS011;67566;42.022;21.356;2023-02-20T08:23:01;9.48;;;7.78;;
78308;SDS011;67566;42.022;21.356;2023-02-20T08:25:29;15.68;;;13.30;;
78308;SDS011;67566;42.022;21.356;2023-02-20T08:27:55;9.10;;;7.55;;
78308;SDS011;67566;42.022;21.356;2023-02-20T08:30:22;10.20;;;7.00;;
78308;SDS011;67566;42.022;21.356;2023-02-20T08:32:50;8.05;;;7.25;;
78308;SDS011;67566;42.022;21.356;2023-02-20T08:35:16;24.25;;;21.77;;
78308;SDS011;67566;42.022;21.356;2023-02-20T08:37:41;10.48;;;9.13;;
78308;SDS011;67566;42.022;21.356;2023-02-20T08:40:07;8.45;;;6.57;;
78308;SDS011;67566;42.022;21.356;2023-02-20T08:42:33;8.65;;;6.30;;
78308;SDS011;67566;42.022;21.356;2023-02-20T08:45:00;9.27;;;7.25;;
78308;SDS011;67566;42.022;21.356;2023-02-20T08:47:26;11.02;;;8.15;;
78308;SDS011;67566;42.022;21.356;2023-02-20T08:49:51;6.78;;;5.82;;
78308;SDS011;67566;42.022;21.356;2023-02-20T08:52:17;18.58;;;13.38;;
78308;SDS011;67566;42.022;21.356;2023-02-20T08:54:44;9.55;;;6.28;;
78308;SDS011;67566;42.022;21.356;2023-02-20T08:57:13;21.48;;;14.07;;
78308;SDS011;67566;42.022;21.356;2023-02-20T08:59:39;10.23;;;7.38;;
78308;SDS011;67566;42.022;21.356;2023-02-20T09:02:05;11.90;;;6.03;;
78308;SDS011;67566;42.022;21.356;2023-02-20T09:04:31;7.70;;;5.90;;
78308;SDS011;67566;42.022;21.356;2023-02-20T09:06:56;7.38;;;5.57;;
78308;SDS011;67566;42.022;21.356;2023-02-20T09:09:22;8.07;;;6.18;;
78308;SDS011;67566;42.022;21.356;2023-02-20T09:11:47;7.93;;;6.40;;
78308;SDS011;67566;42.022;21.356;2023-02-20T09:14:12;9.60;;;5.22;;
78308;SDS011;67566;42.022;21.356;2023-02-20T09:16:38;8.52;;;5.70;;
78308;SDS011;67566;42.022;21.356;2023-02-20T09:19:07;7.50;;;5.82;;
78308;SDS011;67566;42.022;21.356;2023-02-20T09:21:33;8.40;;;6.07;;
78308;SDS011;67566;42.022;21.356;2023-02-20T09:23:59;12.57;;;5.57;;
78308;SDS011;67566;42.022;21.356;2023-02-20T09:26:24;9.68;;;6.10;;
78308;SDS011;67566;42.022;21.356;2023-02-20T09:28:50;8.45;;;6.00;;
78308;SDS011;67566;42.022;21.356;2023-02-20T09:31:15;6.93;;;6.30;;
78308;SDS011;67566;42.022;21.356;2023-02-20T09:33:44;7.57;;;5.88;;
78308;SDS011;67566;42.022;21.356;2023-02-20T09:36:11;9.70;;;6.63;;
78308;SDS011;67566;42.022;21.356;2023-02-20T09:38:36;7.07;;;5.05;;
78308;SDS011;67566;42.022;21.356;2023-02-20T09:41:02;7.65;;;4.95;;
78308;SDS011;67566;42.022;21.356;2023-02-20T09:46:19;8.73;;;4.95;;
78308;SDS011;67566;42.022;21.356;2023-02-20T09:51:52;8.30;;;4.72;;
78308;SDS011;67566;42.022;21.356;2023-02-20T09:54:23;5.72;;;5.10;;
78308;SDS011;67566;42.022;21.356;2023-02-20T09:56:57;7.32;;;5.60;;
78308;SDS011;67566;42.022;21.356;2023-02-20T09:59:27;6.25;;;4.72;;
78308;SDS011;67566;42.022;21.356;2023-02-20T10:04:47;7.88;;;4.53;;
78308;SDS011;67566;42.022;21.356;2023-02-20T10:07:17;5.43;;;3.63;;
78308;SDS011;67566;42.022;21.356;2023-02-20T10:09:48;8.32;;;3.50;;
78308;SDS011;67566;42.022;21.356;2023-02-20T10:12:17;13.73;;;7.63;;
78308;SDS011;67566;42.022;21.356;2023-02-20T10:15:07;6.93;;;3.88;;
78308;SDS011;67566;42.022;21.356;2023-02-20T10:17:46;6.05;;;4.03;;
78308;SDS011;67566;42.022;21.356;2023-02-20T10:26:25;5.28;;;4.65;;
78308;SDS011;67566;42.022;21.356;2023-02-20T10:28:56;5.30;;;4.55;;
78308;SDS011;67566;42.022;21.356;2023-02-20T10:31:41;6.82;;;6.20;;
78308;SDS011;67566;42.022;21.356;2023-02-20T10:34:11;7.05;;;5.95;;
78308;SDS011;67566;42.022;21.356;2023-02-20T10:36:47;6.68;;;5.05;;
78308;SDS011;67566;42.022;21.356;2023-02-20T10:39:20;4.90;;;3.10;;
78308;SDS011;67566;42.022;21.356;2023-02-20T10:42:08;4.03;;;3.20;;
78308;SDS011;67566;42.022;21.356;2023-02-20T10:44:42;5.55;;;3.03;;
78308;SDS011;67566;42.022;21.356;2023-02-20T10:52:30;10.13;;;9.13;;
78308;SDS011;67566;42.022;21.356;2023-02-20T10:57:38;3.63;;;3.10;;
78308;SDS011;67566;42.022;21.356;2023-02-20T11:02:43;4.97;;;2.33;;
78308;SDS011;67566;42.022;21.356;2023-02-20T11:05:15;2.97;;;2.40;;
78308;SDS011;67566;42.022;21.356;2023-02-20T11:07:46;4.55;;;2.75;;
78308;SDS011;67566;42.022;21.356;2023-02-20T11:10:12;3.55;;;2.42;;
78308;SDS011;67566;42.022;21.356;2023-02-20T11:15:14;4.90;;;3.30;;
78308;SDS011;67566;42.022;21.356;2023-02-20T11:17:42;4.75;;;3.85;;
78308;SDS011;67566;42.022;21.356;2023-02-20T11:22:56;6.38;;;3.67;;
78308;SDS011;67566;42.022;21.356;2023-02-20T11:25:26;5.13;;;2.75;;
78308;SDS011;67566;42.022;21.356;2023-02-20T11:27:53;4.15;;;2.38;;
78308;SDS011;67566;42.022;21.356;2023-02-20T11:30:31;5.03;;;2.45;;
78308;SDS011;67566;42.022;21.356;2023-02-20T11:33:21;6.75;;;3.20;;
78308;SDS011;67566;42.022;21.356;2023-02-20T11:38:39;3.92;;;2.40;;
78308;SDS011;67566;42.022;21.356;2023-02-20T11:41:19;5.40;;;3.30;;
78308;SDS011;67566;42.022;21.356;2023-02-20T11:44:04;4.32;;;2.80;;
78308;SDS011;67566;42.022;21.356;2023-02-20T11:46:31;7.60;;;3.25;;
78308;SDS011;67566;42.022;21.356;2023-02-20T11:49:04;4.70;;;2.70;;
78308;SDS011;67566;42.022;21.356;2023-02-20T11:51:35;4.90;;;3.30;;
78308;SDS011;67566;42.022;21.356;2023-02-20T11:54:13;5.63;;;3.13;;
78308;SDS011;67566;42.022;21.356;2023-02-20T11:59:36;5.25;;;3.45;;
78308;SDS011;67566;42.022;21.356;2023-02-20T12:04:35;7.50;;;4.05;;
78308;SDS011;67566;42.022;21.356;2023-02-20T12:07:00;5.45;;;3.20;;
78308;SDS011;67566;42.022;21.356;2023-02-20T12:09:43;4.60;;;2.58;;
78308;SDS011;67566;42.022;21.356;2023-02-20T12:12:12;4.22;;;2.92;;
78308;SDS011;67566;42.022;21.356;2023-02-20T12:14:38;9.15;;;3.40;;
78308;SDS011;67566;42.022;21.356;2023-02-20T12:17:12;6.95;;;3.50;;
78308;SDS011;67566;42.022;21.356;2023-02-20T12:28:21;3.17;;;1.70;;
78308;SDS011;67566;42.022;21.356;2023-02-20T12:34:35;4.30;;;2.22;;
78308;SDS011;67566;42.022;21.356;2023-02-20T12:39:46;4.82;;;2.13;;
78308;SDS011;67566;42.022;21.356;2023-02-20T12:56:23;5.75;;;2.20;;
78308;SDS011;67566;42.022;21.356;2023-02-20T13:01:31;5.68;;;2.60;;
78308;SDS011;67566;42.022;21.356;2023-02-20T13:04:00;5.50;;;3.08;;
78308;SDS011;67566;42.022;21.356;2023-02-20T13:09:21;4.95;;;3.10;;
78308;SDS011;67566;42.022;21.356;2023-02-20T13:12:00;5.22;;;3.28;;
78308;SDS011;67566;42.022;21.356;2023-02-20T13:17:01;4.18;;;2.33;;
78308;SDS011;67566;42.022;21.356;2023-02-20T13:20:09;5.97;;;3.30;;
78308;SDS011;67566;42.022;21.356;2023-02-20T13:22:38;5.07;;;2.60;;
78308;SDS011;67566;42.022;21.356;2023-02-20T13:27:59;4.82;;;2.40;;
78308;SDS011;67566;42.022;21.356;2023-02-20T13:30:26;4.30;;;2.63;;
78308;SDS011;67566;42.022;21.356;2023-02-20T13:40:42;4.53;;;2.80;;
78308;SDS011;67566;42.022;21.356;2023-02-20T13:45:38;6.20;;;2.58;;
78308;SDS011;67566;42.022;21.356;2023-02-20T13:48:17;11.20;;;5.60;;
78308;SDS011;67566;42.022;21.356;2023-02-20T13:50:43;8.93;;;3.30;;
78308;SDS011;67566;42.022;21.356;2023-02-20T13:53:09;4.40;;;2.38;;
78308;SDS011;67566;42.022;21.356;2023-02-20T13:55:35;7.35;;;3.38;;
78308;SDS011;67566;42.022;21.356;2023-02-20T13:58:11;5.32;;;2.95;;
78308;SDS011;67566;42.022;21.356;2023-02-20T14:00:52;9.45;;;3.80;;
78308;SDS011;67566;42.022;21.356;2023-02-20T14:08:48;4.68;;;2.53;;
78308;SDS011;67566;42.022;21.356;2023-02-20T14:11:25;7.15;;;3.00;;
78308;SDS011;67566;42.022;21.356;2023-02-20T14:13:50;6.90;;;4.55;;
78308;SDS011;67566;42.022;21.356;2023-02-20T14:16:28;3.83;;;2.50;;
78308;SDS011;67566;42.022;21.356;2023-02-20T14:19:00;6.28;;;3.50;;
78308;SDS011;67566;42.022;21.356;2023-02-20T14:21:28;9.63;;;4.43;;
78308;SDS011;67566;42.022;21.356;2023-02-20T14:23:54;8.30;;;4.53;;
78308;SDS011;67566;42.022;21.356;2023-02-20T14:28:49;6.63;;;3.80;;
78308;SDS011;67566;42.022;21.356;2023-02-20T14:31:22;9.93;;;4.93;;
78308;SDS011;67566;42.022;21.356;2023-02-20T14:33:55;15.60;;;7.82;;
78308;SDS011;67566;42.022;21.356;2023-02-20T14:42:19;8.82;;;3.88;;
78308;SDS011;67566;42.022;21.356;2023-02-20T14:44:47;7.82;;;4.05;;
78308;SDS011;67566;42.022;21.356;2023-02-20T14:47:15;6.90;;;4.00;;
78308;SDS011;67566;42.022;21.356;2023-02-20T14:49:42;6.65;;;3.78;;
78308;SDS011;67566;42.022;21.356;2023-02-20T14:54:34;7.70;;;3.90;;
78308;SDS011;67566;42.022;21.356;2023-02-20T14:57:00;7.45;;;4.25;;
78308;SDS011;67566;42.022;21.356;2023-02-20T15:02:02;8.30;;;5.07;;
78308;SDS011;67566;42.022;21.356;2023-02-20T15:04:47;7.85;;;3.95;;
78308;SDS011;67566;42.022;21.356;2023-02-20T15:07:18;9.50;;;4.70;;
78308;SDS011;67566;42.022;21.356;2023-02-20T15:09:46;8.50;;;4.47;;
78308;SDS011;67566;42.022;21.356;2023-02-20T15:14:55;8.27;;;4.45;;
78308;SDS011;67566;42.022;21.356;2023-02-20T15:17:27;8.40;;;4.07;;
78308;SDS011;67566;42.022;21.356;2023-02-20T15:19:54;6.53;;;3.90;;
78308;SDS011;67566;42.022;21.356;2023-02-20T15:24:51;4.97;;;3.60;;
78308;SDS011;67566;42.022;21.356;2023-02-20T15:27:18;8.18;;;4.50;;
78308;SDS011;67566;42.022;21.356;2023-02-20T15:30:05;8.10;;;5.38;;
78308;SDS011;67566;42.022;21.356;2023-02-20T15:32:36;7.38;;;4.40;;
78308;SDS011;67566;42.022;21.356;2023-02-20T15:35:11;10.18;;;5.28;;
78308;SDS011;67566;42.022;21.356;2023-02-20T15:37:40;8.10;;;4.85;;
78308;SDS011;67566;42.022;21.356;2023-02-20T15:40:08;9.73;;;5.80;;
78308;SDS011;67566;42.022;21.356;2023-02-20T15:42:40;9.43;;;6.22;;
78308;SDS011;67566;42.022;21.356;2023-02-20T15:45:06;10.35;;;5.43;;
78308;SDS011;67566;42.022;21.356;2023-02-20T15:47:32;8.45;;;5.10;;
78308;SDS011;67566;42.022;21.356;2023-02-20T15:49:57;9.50;;;5.90;;
78308;SDS011;67566;42.022;21.356;2023-02-20T15:52:22;10.50;;;5.47;;
78308;SDS011;67566;42.022;21.356;2023-02-20T15:54:53;9.75;;;5.60;;
78308;SDS011;67566;42.022;21.356;2023-02-20T15:57:21;9.65;;;5.82;;
78308;SDS011;67566;42.022;21.356;2023-02-20T15:59:47;9.50;;;6.05;;
78308;SDS011;67566;42.022;21.356;2023-02-20T16:02:15;14.00;;;7.50;;
78308;SDS011;67566;42.022;21.356;2023-02-20T16:04:47;11.98;;;6.57;;
78308;SDS011;67566;42.022;21.356;2023-02-20T16:07:14;14.13;;;8.18;;
78308;SDS011;67566;42.022;21.356;2023-02-20T16:09:41;16.30;;;9.13;;
78308;SDS011;67566;42.022;21.356;2023-02-20T16:12:09;19.90;;;10.65;;
78308;SDS011;67566;42.022;21.356;2023-02-20T16:14:39;22.65;;;12.15;;
78308;SDS011;67566;42.022;21.356;2023-02-20T16:17:05;20.58;;;11.82;;
78308;SDS011;67566;42.022;21.356;2023-02-20T16:19:34;21.23;;;12.48;;
78308;SDS011;67566;42.022;21.356;2023-02-20T16:22:00;39.33;;;22.85;;
78308;SDS011;67566;42.022;21.356;2023-02-20T16:24:25;47.08;;;26.60;;
78308;SDS011;67566;42.022;21.356;2023-02-20T16:26:51;49.92;;;26.48;;
78308;SDS011;67566;42.022;21.356;2023-02-20T16:29:21;42.67;;;22.15;;
78308;SDS011;67566;42.022;21.356;2023-02-20T16:34:24;53.90;;;26.92;;
78308;SDS011;67566;42.022;21.356;2023-02-20T16:36:51;43.80;;;25.52;;
78308;SDS011;67566;42.022;21.356;2023-02-20T16:39:17;47.35;;;30.05;;
78308;SDS011;67566;42.022;21.356;2023-02-20T16:41:42;38.42;;;27.20;;
78308;SDS011;67566;42.022;21.356;2023-02-20T16:44:17;36.25;;;21.92;;
78308;SDS011;67566;42.022;21.356;2023-02-20T16:46:54;57.25;;;33.53;;
78308;SDS011;67566;42.022;21.356;2023-02-20T16:49:20;44.15;;;26.25;;
78308;SDS011;67566;42.022;21.356;2023-02-20T16:51:45;44.40;;;26.63;;
78308;SDS011;67566;42.022;21.356;2023-02-20T16:54:23;35.55;;;21.08;;
78308;SDS011;67566;42.022;21.356;2023-02-20T16:56:48;34.65;;;19.70;;
78308;SDS011;67566;42.022;21.356;2023-02-20T16:59:14;108.32;;;54.90;;
78308;SDS011;67566;42.022;21.356;2023-02-20T17:01:39;67.30;;;36.00;;
78308;SDS011;67566;42.022;21.356;2023-02-20T17:04:05;38.35;;;21.80;;